createdAt,value
2022-12-04T00:01:29.577Z,33.63
2022-12-04T00:03:59.461Z,29.73
2022-12-04T00:06:29.236Z,34.47
2022-12-04T00:08:58.919Z,33.58
2022-12-04T00:11:29.759Z,31.73
2022-12-04T00:14:03.122Z,30.83
2022-12-04T00:16:36.433Z,26.90
2022-12-04T00:19:05.291Z,29.75
2022-12-04T00:21:33.794Z,34.47
2022-12-04T00:24:02.152Z,33.30
2022-12-04T00:26:31.736Z,35.40
2022-12-04T00:29:00.238Z,29.30
2022-12-04T00:31:30.326Z,33.05
2022-12-04T00:34:00.773Z,30.02
2022-12-04T00:36:31.169Z,32.08
2022-12-04T00:39:00.870Z,34.00
2022-12-04T00:41:30.958Z,31.42
2022-12-04T00:43:59.296Z,34.88
2022-12-04T00:46:27.869Z,32.75
2022-12-04T00:48:56.239Z,30.38
2022-12-04T00:51:26.758Z,29.33
2022-12-04T00:53:55.140Z,32.30
2022-12-04T00:56:25.848Z,28.85
2022-12-04T00:58:54.761Z,34.40
2022-12-04T01:01:24.427Z,38.60
2022-12-04T01:03:53.093Z,31.92
2022-12-04T01:06:24.020Z,29.80
2022-12-04T01:08:55.090Z,32.95
2022-12-04T01:11:25.111Z,30.50
2022-12-04T01:13:53.552Z,27.08
2022-12-04T01:16:24.461Z,29.05
2022-12-04T01:18:52.749Z,31.13
2022-12-04T01:21:21.014Z,29.15
2022-12-04T01:23:49.338Z,28.25
2022-12-04T01:26:19.000Z,32.63
2022-12-04T01:28:47.142Z,32.72
2022-12-04T01:31:17.263Z,30.40
2022-12-04T01:33:46.029Z,28.38
2022-12-04T01:36:16.551Z,27.60
2022-12-04T01:38:45.702Z,32.72
2022-12-04T01:41:15.747Z,27.60
2022-12-04T01:43:45.342Z,23.70
2022-12-04T01:46:13.722Z,27.02
2022-12-04T01:48:45.315Z,27.98
2022-12-04T01:51:17.928Z,28.90
2022-12-04T01:53:52.700Z,27.83
2022-12-04T01:56:23.069Z,23.65
2022-12-04T01:58:55.558Z,24.70
2022-12-04T02:01:24.531Z,29.58
2022-12-04T02:03:52.807Z,27.85
2022-12-04T02:06:21.011Z,24.63
2022-12-04T02:08:49.269Z,26.45
2022-12-04T02:11:28.178Z,23.60
2022-12-04T02:14:05.425Z,22.90
2022-12-04T02:16:40.152Z,24.92
2022-12-04T02:19:25.014Z,27.92
2022-12-04T02:21:56.562Z,25.00
2022-12-04T02:24:48.276Z,24.98
2022-12-04T02:27:31.769Z,24.23
2022-12-04T02:30:06.468Z,25.48
2022-12-04T02:32:43.513Z,23.75
2022-12-04T02:35:17.089Z,24.73
2022-12-04T02:37:48.744Z,26.67
2022-12-04T02:40:25.282Z,22.55
2022-12-04T02:42:59.676Z,22.15
2022-12-04T02:45:33.433Z,20.93
2022-12-04T02:48:04.232Z,22.20
2022-12-04T02:50:36.345Z,23.77
2022-12-04T02:53:09.825Z,23.27
2022-12-04T02:55:43.454Z,22.95
2022-12-04T02:58:17.254Z,22.43
2022-12-04T03:00:49.315Z,22.92
2022-12-04T03:03:22.833Z,22.15
2022-12-04T03:05:57.150Z,20.63
2022-12-04T03:08:32.071Z,25.70
2022-12-04T03:11:02.624Z,24.10
2022-12-04T03:13:37.115Z,22.13
2022-12-04T03:16:10.818Z,20.63
2022-12-04T03:18:44.531Z,20.93
2022-12-04T03:21:18.182Z,22.25
2022-12-04T03:23:51.343Z,20.45
2022-12-04T03:26:26.071Z,24.00
2022-12-04T03:28:58.898Z,22.30
2022-12-04T03:31:36.391Z,22.20
2022-12-04T03:34:07.138Z,24.80
2022-12-04T03:36:43.975Z,24.02
2022-12-04T03:39:20.043Z,23.05
2022-12-04T03:41:56.571Z,26.45
2022-12-04T03:44:28.550Z,24.40
2022-12-04T03:47:04.877Z,22.67
2022-12-04T03:49:40.359Z,22.13
2022-12-04T03:52:13.762Z,19.75
2022-12-04T03:54:48.041Z,22.10
2022-12-04T03:57:19.203Z,23.20
2022-12-04T03:59:55.859Z,22.73
2022-12-04T04:02:29.721Z,21.33
2022-12-04T04:05:01.313Z,23.45
2022-12-04T04:07:35.706Z,23.65
2022-12-04T04:10:08.766Z,22.80
2022-12-04T04:12:40.932Z,22.90
2022-12-04T04:15:30.286Z,21.25
2022-12-04T04:18:20.005Z,20.17
2022-12-04T04:21:08.987Z,21.48
2022-12-04T04:23:59.780Z,22.53
2022-12-04T04:26:32.467Z,19.65
2022-12-04T04:29:00.850Z,22.77
2022-12-04T04:31:34.406Z,17.48
2022-12-04T04:34:12.604Z,22.10
2022-12-04T04:36:47.813Z,20.25
2022-12-04T04:39:24.686Z,20.65
2022-12-04T04:41:58.573Z,20.50
2022-12-04T04:44:34.503Z,24.10
2022-12-04T04:47:07.277Z,19.90
2022-12-04T04:49:38.387Z,21.45
2022-12-04T04:52:06.698Z,24.25
2022-12-04T04:54:36.658Z,22.23
2022-12-04T04:57:04.963Z,19.13
2022-12-04T04:59:34.568Z,19.90
2022-12-04T05:02:03.077Z,21.30
2022-12-04T05:04:31.398Z,17.52
2022-12-04T05:07:00.986Z,20.75
2022-12-04T05:09:29.158Z,17.60
2022-12-04T05:11:57.597Z,18.50
2022-12-04T05:14:25.789Z,19.50
2022-12-04T05:16:54.259Z,18.88
2022-12-04T05:19:39.977Z,18.23
2022-12-04T05:22:09.855Z,20.60
2022-12-04T05:24:38.017Z,18.13
2022-12-04T05:27:06.211Z,18.50
2022-12-04T05:29:36.064Z,18.53
2022-12-04T05:32:04.552Z,19.20
2022-12-04T05:34:33.071Z,20.13
2022-12-04T05:37:01.362Z,19.50
2022-12-04T05:39:31.026Z,17.13
2022-12-04T05:41:59.175Z,20.23
2022-12-04T05:44:27.498Z,17.50
2022-12-04T05:46:55.803Z,21.63
2022-12-04T05:49:24.418Z,16.50
2022-12-04T05:51:52.954Z,19.45
2022-12-04T05:54:21.217Z,16.63
2022-12-04T05:56:50.787Z,18.83
2022-12-04T05:59:19.230Z,19.05
2022-12-04T06:01:47.519Z,18.95
2022-12-04T06:04:15.747Z,19.43
2022-12-04T06:06:44.061Z,18.67
2022-12-04T06:09:13.083Z,17.95
2022-12-04T06:11:42.739Z,18.13
2022-12-04T06:14:14.740Z,19.77
2022-12-04T06:16:45.273Z,20.55
2022-12-04T06:19:15.454Z,18.70
2022-12-04T06:21:45.758Z,16.45
2022-12-04T06:24:15.399Z,18.00
2022-12-04T06:27:03.900Z,15.52
2022-12-04T06:29:33.445Z,15.18
2022-12-04T06:32:02.054Z,13.10
2022-12-04T06:34:33.631Z,14.90
2022-12-04T06:37:01.794Z,18.45
2022-12-04T06:39:30.068Z,15.07
2022-12-04T06:41:58.293Z,15.27
2022-12-04T06:44:26.478Z,14.67
2022-12-04T06:46:56.098Z,14.60
2022-12-04T06:49:25.710Z,13.90
2022-12-04T06:51:53.991Z,16.27
2022-12-04T06:54:22.190Z,15.40
2022-12-04T06:56:51.424Z,15.10
2022-12-04T06:59:19.608Z,15.00
2022-12-04T07:01:47.802Z,15.67
2022-12-04T07:04:17.440Z,16.60
2022-12-04T07:06:45.613Z,14.07
2022-12-04T07:09:17.718Z,16.52
2022-12-04T07:11:46.718Z,16.58
2022-12-04T07:14:15.652Z,13.88
2022-12-04T07:16:44.233Z,17.27
2022-12-04T07:19:14.444Z,13.93
2022-12-04T07:21:44.662Z,16.85
2022-12-04T07:24:16.563Z,14.82
2022-12-04T07:26:45.049Z,13.23
2022-12-04T07:29:13.484Z,15.05
2022-12-04T07:31:41.863Z,15.40
2022-12-04T07:34:10.098Z,14.87
2022-12-04T07:36:40.816Z,16.37
2022-12-04T07:39:10.456Z,14.80
2022-12-04T07:41:38.662Z,15.82
2022-12-04T07:44:09.171Z,13.48
2022-12-04T07:46:37.364Z,14.52
2022-12-04T07:49:05.577Z,18.60
2022-12-04T07:51:33.769Z,19.13
2022-12-04T07:54:04.373Z,20.35
2022-12-04T07:56:34.696Z,15.52
2022-12-04T07:59:03.781Z,15.45
2022-12-04T08:01:32.832Z,18.13
2022-12-04T08:04:03.384Z,20.90
2022-12-04T08:06:34.863Z,15.07
2022-12-04T08:09:09.155Z,12.50
2022-12-04T08:11:39.745Z,16.65
2022-12-04T08:14:09.723Z,21.83
2022-12-04T08:16:38.060Z,18.27
2022-12-04T08:19:06.398Z,27.15
2022-12-04T08:21:35.061Z,15.10
2022-12-04T08:24:03.663Z,16.15
2022-12-04T08:26:33.575Z,17.30
2022-12-04T08:29:04.436Z,20.30
2022-12-04T08:31:34.464Z,18.93
2022-12-04T08:34:05.689Z,19.95
2022-12-04T08:36:34.941Z,19.25
2022-12-04T08:39:03.167Z,18.27
2022-12-04T08:41:31.336Z,16.15
2022-12-04T08:44:00.411Z,16.60
2022-12-04T08:46:32.081Z,15.70
2022-12-04T08:49:00.421Z,16.90
2022-12-04T08:51:30.863Z,19.63
2022-12-04T08:54:01.372Z,22.60
2022-12-04T08:56:31.412Z,23.25
2022-12-04T08:59:00.199Z,20.77
2022-12-04T09:01:29.636Z,21.13
2022-12-04T09:03:59.330Z,15.50
2022-12-04T09:06:27.940Z,19.55
2022-12-04T09:08:57.065Z,21.47
2022-12-04T09:11:27.656Z,15.03
2022-12-04T09:13:56.318Z,26.50
2022-12-04T09:16:26.339Z,17.77
2022-12-04T09:18:55.290Z,20.48
2022-12-04T09:21:26.127Z,20.45
2022-12-04T09:23:54.350Z,16.77
2022-12-04T09:26:25.472Z,20.53
2022-12-04T09:28:54.638Z,22.67
2022-12-04T09:31:24.592Z,21.97
2022-12-04T09:33:53.617Z,30.60
2022-12-04T09:36:22.110Z,18.58
2022-12-04T09:38:53.802Z,15.90
2022-12-04T09:41:41.275Z,19.80
2022-12-04T09:44:16.566Z,18.08
2022-12-04T09:46:51.382Z,15.52
2022-12-04T09:49:24.562Z,19.20
2022-12-04T09:51:55.427Z,16.63
2022-12-04T09:54:29.842Z,18.25
2022-12-04T09:57:04.144Z,14.65
2022-12-04T09:59:33.864Z,13.82
2022-12-04T10:02:20.827Z,14.90
2022-12-04T10:04:49.104Z,15.02
2022-12-04T10:07:21.126Z,16.15
2022-12-04T10:09:56.666Z,10.90
2022-12-04T10:12:33.228Z,16.23
2022-12-04T10:15:28.477Z,13.43
2022-12-04T10:18:17.593Z,17.02
2022-12-04T10:21:02.598Z,13.98
2022-12-04T10:23:43.957Z,18.63
2022-12-04T10:26:18.114Z,20.33
2022-12-04T10:28:55.047Z,21.75
2022-12-04T10:31:25.907Z,37.90
2022-12-04T10:33:56.783Z,15.35
2022-12-04T10:36:29.251Z,16.48
2022-12-04T10:39:00.085Z,19.88
2022-12-04T10:41:36.094Z,16.13
2022-12-04T10:44:04.823Z,14.63
2022-12-04T10:46:35.369Z,15.65
2022-12-04T10:49:06.762Z,13.38
2022-12-04T10:51:40.755Z,15.52
2022-12-04T10:54:19.585Z,13.20
2022-12-04T10:56:57.721Z,14.32
2022-12-04T10:59:26.919Z,14.68
2022-12-04T11:02:06.306Z,15.45
2022-12-04T11:04:36.318Z,13.75
2022-12-04T11:07:07.710Z,16.27
2022-12-04T11:09:36.923Z,12.75
2022-12-04T11:12:18.910Z,12.82
2022-12-04T11:14:47.538Z,14.43
2022-12-04T11:17:19.045Z,12.13
2022-12-04T11:19:47.465Z,12.63
2022-12-04T11:22:18.872Z,12.27
2022-12-04T11:24:53.030Z,10.90
2022-12-04T11:27:28.344Z,13.23
2022-12-04T11:29:57.688Z,10.88
2022-12-04T11:32:30.123Z,13.15
2022-12-04T11:35:02.039Z,14.80
2022-12-04T11:37:34.818Z,11.77
2022-12-04T11:40:06.696Z,13.57
2022-12-04T11:42:36.476Z,12.73
2022-12-04T11:45:19.822Z,15.63
2022-12-04T11:47:55.956Z,12.30
2022-12-04T11:50:31.582Z,11.07
2022-12-04T11:53:12.280Z,12.85
2022-12-04T11:55:50.334Z,11.35
2022-12-04T11:58:44.966Z,12.98
2022-12-04T12:01:26.251Z,10.77
2022-12-04T12:04:09.281Z,14.25
2022-12-04T12:06:38.899Z,14.00
2022-12-04T12:09:27.066Z,14.60
2022-12-04T12:12:01.398Z,10.30
2022-12-04T12:14:41.101Z,13.77
2022-12-04T12:17:17.577Z,11.82
2022-12-04T12:20:22.573Z,10.82
2022-12-04T12:23:09.621Z,10.02
2022-12-04T12:25:51.953Z,12.55
2022-12-04T12:28:34.707Z,10.27
2022-12-04T12:31:25.138Z,16.08
2022-12-04T12:33:57.799Z,10.48
2022-12-04T12:36:30.926Z,18.45
2022-12-04T12:39:05.074Z,11.82
2022-12-04T12:41:37.075Z,13.70
2022-12-04T12:44:11.648Z,13.63
2022-12-04T12:46:49.843Z,12.18
2022-12-04T12:49:22.314Z,11.35
2022-12-04T12:51:55.870Z,10.70
2022-12-04T12:54:34.506Z,9.65
2022-12-04T12:57:07.901Z,11.88
2022-12-04T12:59:39.475Z,11.77
2022-12-04T13:02:17.999Z,9.40
2022-12-04T13:04:51.235Z,11.38
2022-12-04T13:07:28.854Z,14.73
2022-12-04T13:10:04.893Z,12.55
2022-12-04T13:12:45.165Z,15.57
2022-12-04T13:15:17.304Z,11.87
2022-12-04T13:17:49.176Z,10.80
2022-12-04T13:20:22.631Z,11.00
2022-12-04T13:23:01.690Z,11.07
2022-12-04T13:25:42.894Z,21.00
2022-12-04T13:28:22.394Z,12.80
2022-12-04T13:30:56.946Z,13.23
2022-12-04T13:33:44.764Z,10.80
2022-12-04T13:36:45.765Z,12.82
2022-12-04T13:39:52.304Z,16.63
2022-12-04T13:42:24.969Z,15.70
2022-12-04T13:44:59.158Z,15.68
2022-12-04T13:47:29.692Z,11.97
2022-12-04T13:50:27.043Z,16.45
2022-12-04T13:52:55.670Z,14.77
2022-12-04T13:55:31.076Z,15.60
2022-12-04T13:58:01.283Z,16.30
2022-12-04T14:00:32.605Z,14.15
2022-12-04T14:03:05.230Z,13.87
2022-12-04T14:05:42.830Z,14.52
2022-12-04T14:08:25.225Z,11.30
2022-12-04T14:11:03.521Z,16.83
2022-12-04T14:13:44.236Z,16.33
2022-12-04T14:16:24.029Z,17.70
2022-12-04T14:18:55.045Z,24.25
2022-12-04T14:21:25.478Z,13.53
2022-12-04T14:23:55.584Z,14.93
2022-12-04T14:26:49.017Z,18.70
2022-12-04T14:29:36.262Z,19.00
2022-12-04T14:32:10.771Z,20.00
2022-12-04T14:34:39.753Z,18.27
2022-12-04T14:37:23.072Z,17.63
2022-12-04T14:39:52.478Z,20.45
2022-12-04T14:42:26.609Z,25.45
2022-12-04T14:44:58.157Z,20.52
2022-12-04T14:47:43.980Z,21.77
2022-12-04T14:50:30.349Z,21.85
2022-12-04T14:53:11.894Z,20.63
2022-12-04T14:55:52.200Z,20.10
2022-12-04T14:58:31.022Z,23.00
2022-12-04T15:01:01.892Z,23.55
2022-12-04T15:03:35.090Z,23.55
2022-12-04T15:06:06.122Z,19.73
2022-12-04T15:08:36.258Z,24.48
2022-12-04T15:11:25.420Z,23.65
2022-12-04T15:13:53.831Z,24.45
2022-12-04T15:16:24.063Z,22.17
2022-12-04T15:18:56.369Z,21.00
2022-12-04T15:21:25.940Z,26.50
2022-12-04T15:23:55.611Z,22.70
2022-12-04T15:26:26.865Z,22.17
2022-12-04T15:28:58.025Z,22.80
2022-12-04T15:31:29.323Z,20.70
2022-12-04T15:34:01.749Z,22.95
2022-12-04T15:36:44.519Z,20.90
2022-12-04T15:39:19.610Z,22.77
2022-12-04T15:41:48.173Z,21.73
2022-12-04T15:44:29.239Z,17.13
2022-12-04T15:46:59.794Z,19.27
2022-12-04T15:49:29.664Z,21.60
2022-12-04T15:52:07.005Z,20.65
2022-12-04T15:54:37.597Z,20.95
2022-12-04T15:57:07.919Z,21.50
2022-12-04T15:59:37.008Z,19.75
2022-12-04T16:02:10.022Z,23.67
2022-12-04T16:04:44.012Z,22.40
2022-12-04T16:07:22.694Z,28.85
2022-12-04T16:10:02.836Z,24.10
2022-12-04T16:12:32.958Z,25.60
2022-12-04T16:15:01.261Z,25.73
2022-12-04T16:17:32.535Z,27.20
2022-12-04T16:20:01.775Z,23.33
2022-12-04T16:22:31.605Z,22.90
2022-12-04T16:25:01.196Z,24.15
2022-12-04T16:27:29.512Z,27.23
2022-12-04T16:29:57.716Z,23.73
2022-12-04T16:32:29.726Z,22.92
2022-12-04T16:34:58.267Z,26.27
2022-12-04T16:37:27.885Z,26.42
2022-12-04T16:39:56.275Z,27.23
2022-12-04T16:42:28.757Z,26.95
2022-12-04T16:44:57.377Z,26.00
2022-12-04T16:47:25.808Z,25.95
2022-12-04T16:49:54.489Z,22.77
2022-12-04T16:52:23.022Z,22.57
2022-12-04T16:54:51.196Z,29.13
2022-12-04T16:57:19.582Z,26.35
2022-12-04T16:59:49.112Z,26.63
2022-12-04T17:02:28.408Z,21.57
2022-12-04T17:04:58.059Z,29.77
2022-12-04T17:07:26.592Z,27.63
2022-12-04T17:09:55.718Z,24.00
2022-12-04T17:12:24.171Z,27.55
2022-12-04T17:14:53.972Z,27.88
2022-12-04T17:17:22.381Z,30.27
2022-12-04T17:19:50.517Z,26.95
2022-12-04T17:22:21.107Z,27.55
2022-12-04T17:24:55.725Z,28.83
2022-12-04T17:27:24.590Z,31.07
2022-12-04T17:29:54.465Z,28.75
2022-12-04T17:32:22.798Z,26.77
2022-12-04T17:34:53.554Z,33.13
2022-12-04T17:37:22.255Z,28.77
2022-12-04T17:39:50.487Z,30.40
2022-12-04T17:42:18.684Z,29.63
2022-12-04T17:44:47.259Z,29.80
2022-12-04T17:47:16.901Z,28.95
2022-12-04T17:49:45.335Z,32.53
2022-12-04T17:52:13.868Z,28.85
2022-12-04T17:54:42.019Z,26.60
2022-12-04T17:57:10.351Z,26.40
2022-12-04T17:59:38.580Z,24.42
2022-12-04T18:02:07.084Z,29.87
2022-12-04T18:04:36.957Z,27.40
2022-12-04T18:07:05.626Z,26.13
2022-12-04T18:09:34.211Z,26.60
2022-12-04T18:12:02.619Z,35.38
2022-12-04T18:14:32.480Z,31.60
2022-12-04T18:17:01.383Z,28.42
2022-12-04T18:19:31.198Z,35.20
2022-12-04T18:22:01.311Z,32.78
2022-12-04T18:24:29.622Z,39.10
2022-12-04T18:26:57.935Z,31.85
2022-12-04T18:29:27.257Z,31.20
2022-12-04T18:31:55.959Z,32.72
2022-12-04T18:34:24.388Z,28.48
2022-12-04T18:36:52.805Z,32.78
2022-12-04T18:39:24.247Z,35.25
2022-12-04T18:41:55.482Z,34.67
2022-12-04T18:44:24.040Z,31.10
2022-12-04T18:46:53.129Z,33.63
2022-12-04T18:49:21.397Z,30.70
2022-12-04T18:51:50.486Z,32.20
2022-12-04T18:54:21.172Z,33.67
2022-12-04T18:56:52.123Z,30.55
2022-12-04T18:59:21.847Z,29.40
2022-12-04T19:01:50.903Z,26.08
2022-12-04T19:04:21.050Z,25.73
2022-12-04T19:06:52.229Z,28.63
2022-12-04T19:09:40.670Z,22.75
2022-12-04T19:12:13.509Z,23.13
2022-12-04T19:14:42.025Z,27.98
2022-12-04T19:17:11.327Z,25.98
2022-12-04T19:19:39.491Z,28.45
2022-12-04T19:22:07.824Z,27.75
2022-12-04T19:24:36.012Z,22.83
2022-12-04T19:27:11.013Z,26.73
2022-12-04T19:29:41.802Z,27.23
2022-12-04T19:32:11.438Z,26.65
2022-12-04T19:34:39.941Z,23.90
2022-12-04T19:37:08.182Z,26.02
2022-12-04T19:39:36.571Z,25.52
2022-12-04T19:42:04.989Z,24.48
2022-12-04T19:44:48.461Z,22.23
2022-12-04T19:47:19.495Z,20.05
2022-12-04T19:49:47.897Z,22.73
2022-12-04T19:52:16.755Z,21.35
2022-12-04T19:54:45.424Z,24.48
2022-12-04T19:57:14.739Z,21.65
2022-12-04T19:59:46.303Z,21.77
2022-12-04T20:02:27.138Z,25.63
2022-12-04T20:04:55.375Z,22.70
2022-12-04T20:07:23.542Z,24.80
2022-12-04T20:09:52.777Z,18.73
2022-12-04T20:12:21.164Z,24.77
2022-12-04T20:14:49.401Z,22.75
2022-12-04T20:17:17.646Z,24.08
2022-12-04T20:19:47.442Z,23.30
2022-12-04T20:22:15.578Z,22.47
2022-12-04T20:24:44.165Z,23.10
2022-12-04T20:27:12.405Z,25.63
2022-12-04T20:29:40.645Z,22.15
2022-12-04T20:32:09.102Z,20.35
2022-12-04T20:34:43.044Z,21.23
2022-12-04T20:37:14.143Z,21.60
2022-12-04T20:39:42.898Z,21.27
2022-12-04T20:42:11.359Z,23.80
2022-12-04T20:44:39.555Z,22.13
2022-12-04T20:47:07.890Z,23.60
2022-12-04T20:49:36.153Z,25.25
2022-12-04T20:52:04.932Z,23.65
2022-12-04T20:54:41.112Z,24.90
2022-12-04T20:57:10.278Z,24.98
2022-12-04T20:59:38.541Z,21.95
2022-12-04T21:02:06.758Z,19.73
2022-12-04T21:04:37.761Z,25.10
2022-12-04T21:07:06.048Z,23.65
2022-12-04T21:09:35.607Z,23.25
2022-12-04T21:12:24.293Z,25.60
2022-12-04T21:15:09.668Z,23.25
2022-12-04T21:17:38.234Z,23.30
2022-12-04T21:20:09.758Z,23.23
2022-12-04T21:22:38.475Z,23.48
2022-12-04T21:25:10.203Z,20.75
2022-12-04T21:27:38.435Z,20.42
2022-12-04T21:30:08.057Z,20.67
2022-12-04T21:32:36.344Z,21.02
2022-12-04T21:35:04.901Z,22.85
2022-12-04T21:37:33.475Z,21.48
2022-12-04T21:40:02.221Z,23.30
2022-12-04T21:42:31.892Z,19.17
2022-12-04T21:45:00.695Z,23.15
2022-12-04T21:47:29.327Z,22.38
2022-12-04T21:49:57.969Z,21.20
2022-12-04T21:52:28.065Z,21.02
2022-12-04T21:54:56.716Z,23.15
2022-12-04T21:57:25.579Z,21.73
2022-12-04T21:59:55.396Z,21.15
2022-12-04T22:02:23.899Z,20.15
2022-12-04T22:04:52.129Z,21.50
2022-12-04T22:07:20.318Z,21.58
2022-12-04T22:09:48.474Z,21.02
2022-12-04T22:15:07.469Z,21.48
2022-12-04T22:17:35.819Z,22.90
2022-12-04T22:20:04.230Z,20.67
2022-12-04T22:22:32.451Z,20.73
2022-12-04T22:25:01.770Z,18.33
2022-12-04T22:27:30.110Z,19.90
2022-12-04T22:29:58.572Z,22.13
2022-12-04T22:32:28.098Z,21.88
2022-12-04T22:34:56.392Z,18.55
2022-12-04T22:37:25.404Z,22.17
2022-12-04T22:39:53.590Z,19.73
2022-12-04T22:42:21.796Z,19.50
2022-12-04T22:44:49.996Z,20.80
2022-12-04T22:47:18.195Z,18.67
2022-12-04T22:49:47.783Z,19.27
2022-12-04T22:52:16.012Z,17.70
2022-12-04T22:54:44.666Z,17.50
2022-12-04T22:57:12.906Z,20.50
2022-12-04T22:59:41.108Z,17.15
2022-12-04T23:02:09.321Z,20.77
2022-12-04T23:04:37.552Z,17.88
2022-12-04T23:07:07.390Z,18.00
2022-12-04T23:09:36.234Z,17.52
2022-12-04T23:12:04.850Z,18.00
2022-12-04T23:14:35.695Z,22.98
2022-12-04T23:17:04.152Z,22.08
2022-12-04T23:19:32.614Z,19.45
2022-12-04T23:22:00.856Z,18.42
2022-12-04T23:24:30.552Z,22.05
2022-12-04T23:26:58.699Z,18.38
2022-12-04T23:29:52.132Z,19.63
2022-12-04T23:32:15.101Z,17.00
2022-12-04T23:34:43.333Z,23.90
2022-12-04T23:37:11.635Z,22.33
2022-12-04T23:39:41.189Z,21.48
2022-12-04T23:42:09.420Z,20.17
2022-12-04T23:44:37.618Z,18.00
2022-12-04T23:47:06.235Z,21.60
2022-12-04T23:49:34.843Z,20.70
2022-12-04T23:52:03.114Z,21.10
2022-12-04T23:54:34.998Z,23.33
2022-12-04T23:57:04.636Z,23.08
2022-12-04T23:59:32.836Z,18.92
